Time;durP1;ratioP1;P1;durP2;ratioP2;P2;SDS_P1;SDS_P2;PMS_P1;PMS_P2;Temp;Humidity;BMP_temperature;BMP_pressure;BME280_temperature;BME280_humidity;BME280_pressure;Samples;Min_cycle;Max_cycle;Signal;HPM_P1;HPM_P2
2023/09/22 00:02:12;;;;;;;2.03;1.90;;;;;;;;;;5010388;28;20254;-53
2023/09/22 00:04:39;;;;;;;4.03;2.00;;;;;;;;;;5009492;28;20179;-52
2023/09/22 00:07:06;;;;;;;2.03;1.80;;;;;;;;;;5008247;28;20529;-53
2023/09/22 00:09:39;;;;;;;1.97;1.87;;;;;;;;;;5006894;28;20190;-51
2023/09/22 00:12:08;;;;;;;2.10;2.00;;;;;;;;;;5003851;28;20182;-53
2023/09/22 00:14:35;;;;;;;1.90;1.80;;;;;;;;;;5005752;28;20214;-53
2023/09/22 00:17:01;;;;;;;1.90;1.80;;;;;;;;;;5008681;28;20596;-52
2023/09/22 00:19:28;;;;;;;1.93;1.83;;;;;;;;;;5005563;28;20337;-52
2023/09/22 00:21:57;;;;;;;3.00;1.90;;;;;;;;;;5008627;28;20315;-52
2023/09/22 00:24:23;;;;;;;2.90;1.90;;;;;;;;;;5009312;28;20568;-52
2023/09/22 00:26:49;;;;;;;1.87;1.77;;;;;;;;;;5006301;28;20199;-51
2023/09/22 00:29:16;;;;;;;1.90;1.80;;;;;;;;;;5008604;28;20302;-52
2023/09/22 00:31:42;;;;;;;2.77;1.60;;;;;;;;;;5006210;28;20643;-53
2023/09/22 00:34:08;;;;;;;2.00;1.80;;;;;;;;;;5007163;28;20569;-52
2023/09/22 00:36:34;;;;;;;2.17;1.93;;;;;;;;;;5003923;28;20275;-52
2023/09/22 00:39:00;;;;;;;2.20;2.00;;;;;;;;;;5008559;28;20676;-53
2023/09/22 00:41:26;;;;;;;2.50;1.97;;;;;;;;;;5007046;28;20212;-53
2023/09/22 00:43:59;;;;;;;2.20;2.00;;;;;;;;;;5007463;28;20191;-51
2023/09/22 00:46:26;;;;;;;1.90;1.80;;;;;;;;;;5009700;28;20231;-53
2023/09/22 00:48:53;;;;;;;2.47;1.90;;;;;;;;;;5006380;28;20186;-52
2023/09/22 00:51:21;;;;;;;1.93;1.60;;;;;;;;;;5008026;28;20193;-52
2023/09/22 00:53:48;;;;;;;2.00;1.90;;;;;;;;;;5006768;28;20660;-52
2023/09/22 00:56:16;;;;;;;1.97;1.87;;;;;;;;;;5005564;28;20206;-53
2023/09/22 00:58:42;;;;;;;1.92;1.83;;;;;;;;;;5003034;28;20431;-51
2023/09/22 01:01:14;;;;;;;2.30;2.10;;;;;;;;;;5006270;28;20217;-52
2023/09/22 01:03:40;;;;;;;1.90;1.80;;;;;;;;;;5006447;28;20192;-51
2023/09/22 01:06:09;;;;;;;2.07;1.97;;;;;;;;;;5006929;28;20276;-54
2023/09/22 01:08:38;;;;;;;2.13;1.80;;;;;;;;;;5004908;28;20639;-53
2023/09/22 01:11:04;;;;;;;1.97;1.87;;;;;;;;;;5004119;28;20193;-52
2023/09/22 01:13:31;;;;;;;2.27;2.10;;;;;;;;;;5004066;28;20675;-53
2023/09/22 01:15:57;;;;;;;2.20;2.00;;;;;;;;;;5007231;28;20211;-53
2023/09/22 01:18:24;;;;;;;2.03;1.90;;;;;;;;;;4990677;28;20175;-51
2023/09/22 01:20:50;;;;;;;2.17;2.07;;;;;;;;;;5006720;28;20571;-50
2023/09/22 01:23:16;;;;;;;2.23;2.03;;;;;;;;;;5006618;28;20575;-53
2023/09/22 01:25:43;;;;;;;2.57;2.37;;;;;;;;;;5005220;28;20199;-52
2023/09/22 01:28:14;;;;;;;2.83;2.63;;;;;;;;;;5006552;28;20175;-52
2023/09/22 01:30:40;;;;;;;2.20;2.10;;;;;;;;;;5007836;28;20254;-52
2023/09/22 01:33:07;;;;;;;2.53;2.33;;;;;;;;;;5002109;28;20435;-53
2023/09/22 01:35:35;;;;;;;3.17;2.60;;;;;;;;;;5007125;28;20580;-53
2023/09/22 01:38:11;;;;;;;3.40;2.70;;;;;;;;;;5006867;28;20175;-51
2023/09/22 01:40:38;;;;;;;3.57;3.20;;;;;;;;;;5007379;28;20393;-52
2023/09/22 01:43:05;;;;;;;4.73;3.33;;;;;;;;;;5007695;28;20459;-53
2023/09/22 01:45:31;;;;;;;4.40;3.83;;;;;;;;;;5007318;28;20481;-53
2023/09/22 01:47:57;;;;;;;3.60;3.10;;;;;;;;;;5008238;28;20182;-53
2023/09/22 01:50:27;;;;;;;2.90;2.60;;;;;;;;;;5005871;28;20186;-52
2023/09/22 01:52:53;;;;;;;4.50;3.03;;;;;;;;;;5007566;28;20252;-52
2023/09/22 01:55:20;;;;;;;3.00;2.70;;;;;;;;;;5007179;28;20198;-52
2023/09/22 01:57:50;;;;;;;3.33;3.00;;;;;;;;;;5007869;28;20174;-53
2023/09/22 02:00:18;;;;;;;3.10;2.80;;;;;;;;;;5006844;28;20198;-51
2023/09/22 02:02:45;;;;;;;2.70;2.50;;;;;;;;;;5007074;28;20186;-52
2023/09/22 02:05:15;;;;;;;3.43;2.90;;;;;;;;;;5005953;28;20167;-52
2023/09/22 02:07:47;;;;;;;3.07;2.80;;;;;;;;;;4981284;28;20232;-53
2023/09/22 02:10:14;;;;;;;3.20;2.73;;;;;;;;;;5007443;28;20296;-53
2023/09/22 02:12:41;;;;;;;2.87;2.57;;;;;;;;;;5007304;28;20182;-53
2023/09/22 02:15:09;;;;;;;2.50;2.30;;;;;;;;;;5006998;28;20187;-52
2023/09/22 02:17:35;;;;;;;3.67;2.40;;;;;;;;;;5006739;28;20174;-53
2023/09/22 02:20:05;;;;;;;3.03;2.43;;;;;;;;;;5006451;28;20186;-53
2023/09/22 02:22:31;;;;;;;2.77;2.57;;;;;;;;;;5007900;28;20174;-52
2023/09/22 02:24:58;;;;;;;2.53;2.30;;;;;;;;;;5006563;28;20702;-52
2023/09/22 02:27:24;;;;;;;2.50;2.13;;;;;;;;;;4990151;28;20635;-53
2023/09/22 02:29:50;;;;;;;3.00;2.60;;;;;;;;;;4981922;28;20237;-52
2023/09/22 02:32:16;;;;;;;3.27;2.43;;;;;;;;;;5007727;28;20174;-52
2023/09/22 02:34:42;;;;;;;2.57;2.37;;;;;;;;;;5006973;28;20198;-52
2023/09/22 02:37:08;;;;;;;2.77;2.17;;;;;;;;;;5005670;28;20241;-53
2023/09/22 02:39:35;;;;;;;2.87;2.60;;;;;;;;;;5006721;28;20353;-53
2023/09/22 02:42:04;;;;;;;2.57;2.37;;;;;;;;;;5006550;28;20234;-51
2023/09/22 02:44:31;;;;;;;3.47;2.30;;;;;;;;;;5006428;28;20186;-53
2023/09/22 02:46:57;;;;;;;2.30;2.20;;;;;;;;;;5007647;28;20250;-52
2023/09/22 02:49:23;;;;;;;2.93;2.40;;;;;;;;;;5003497;28;20217;-53
2023/09/22 02:51:50;;;;;;;2.77;2.40;;;;;;;;;;5006959;28;20914;-53
2023/09/22 02:54:16;;;;;;;2.53;2.17;;;;;;;;;;4984567;28;20269;-52
2023/09/22 02:56:42;;;;;;;2.30;2.10;;;;;;;;;;5005667;28;20450;-53
2023/09/22 02:59:08;;;;;;;2.90;2.10;;;;;;;;;;4988438;28;20552;-52
2023/09/22 03:01:36;;;;;;;2.43;2.23;;;;;;;;;;5007746;28;20210;-53
2023/09/22 03:04:03;;;;;;;3.10;2.10;;;;;;;;;;5006387;28;20191;-53
2023/09/22 03:06:30;;;;;;;2.60;2.40;;;;;;;;;;5007526;28;20272;-53
2023/09/22 03:08:56;;;;;;;2.27;1.80;;;;;;;;;;5005472;28;20181;-52
2023/09/22 03:11:22;;;;;;;2.50;2.10;;;;;;;;;;4999022;28;20206;-52
2023/09/22 03:13:49;;;;;;;2.23;2.00;;;;;;;;;;5004739;28;20187;-53
2023/09/22 03:16:15;;;;;;;3.40;2.50;;;;;;;;;;5005337;28;20612;-53
2023/09/22 03:18:41;;;;;;;2.50;2.30;;;;;;;;;;5006633;28;20521;-52
2023/09/22 03:21:10;;;;;;;2.13;1.93;;;;;;;;;;5009550;28;20610;-53
2023/09/22 03:23:36;;;;;;;2.47;2.13;;;;;;;;;;4994720;28;20194;-52
2023/09/22 03:26:05;;;;;;;2.00;1.90;;;;;;;;;;5008385;28;20627;-52
2023/09/22 03:28:31;;;;;;;2.47;2.10;;;;;;;;;;5008100;28;20171;-52
2023/09/22 03:31:01;;;;;;;2.77;2.20;;;;;;;;;;5009524;28;20233;-53
2023/09/22 03:33:28;;;;;;;2.40;2.20;;;;;;;;;;5008667;28;20182;-53
2023/09/22 03:35:54;;;;;;;3.70;2.20;;;;;;;;;;5008883;28;20179;-53
2023/09/22 03:38:20;;;;;;;2.20;2.10;;;;;;;;;;5010970;28;20191;-53
2023/09/22 03:40:47;;;;;;;2.40;2.20;;;;;;;;;;5007393;28;20658;-51
2023/09/22 03:43:13;;;;;;;2.20;2.00;;;;;;;;;;5009056;28;20201;-52
2023/09/22 03:45:39;;;;;;;2.33;1.90;;;;;;;;;;5009561;28;20209;-52
2023/09/22 03:48:05;;;;;;;3.47;1.90;;;;;;;;;;5010292;28;20249;-53
2023/09/22 03:50:31;;;;;;;2.10;1.90;;;;;;;;;;5009268;28;20696;-53
2023/09/22 03:52:58;;;;;;;2.70;1.93;;;;;;;;;;5009622;28;20627;-52
2023/09/22 03:55:25;;;;;;;2.97;2.00;;;;;;;;;;5010031;28;20201;-52
2023/09/22 03:57:52;;;;;;;4.27;2.33;;;;;;;;;;5007923;28;20265;-52
2023/09/22 04:00:23;;;;;;;2.23;2.07;;;;;;;;;;5008350;28;20206;-52
2023/09/22 04:02:49;;;;;;;2.93;1.70;;;;;;;;;;4990828;28;20199;-52
2023/09/22 04:05:16;;;;;;;3.20;3.00;;;;;;;;;;5008599;28;20253;-53
2023/09/22 04:07:42;;;;;;;3.43;2.30;;;;;;;;;;5010265;28;20171;-53
2023/09/22 04:10:10;;;;;;;1.80;1.70;;;;;;;;;;5008949;28;20179;-53
2023/09/22 04:12:36;;;;;;;1.90;1.80;;;;;;;;;;5007145;28;20193;-52
2023/09/22 04:15:08;;;;;;;3.50;2.30;;;;;;;;;;5006484;28;20286;-52
2023/09/22 04:17:40;;;;;;;1.60;1.50;;;;;;;;;;4978846;28;20183;-52
2023/09/22 04:20:08;;;;;;;1.90;1.70;;;;;;;;;;5006662;28;20187;-53
2023/09/22 04:22:37;;;;;;;2.20;2.00;;;;;;;;;;5009646;28;20494;-53
2023/09/22 04:25:19;;;;;;;3.17;1.67;;;;;;;;;;5008898;28;20520;-53
2023/09/22 04:27:53;;;;;;;3.20;2.20;;;;;;;;;;5008487;28;20170;-56
2023/09/22 04:30:20;;;;;;;3.13;1.80;;;;;;;;;;5004201;28;20697;-53
2023/09/22 04:32:47;;;;;;;1.70;1.53;;;;;;;;;;5007689;28;20228;-51
2023/09/22 04:35:15;;;;;;;2.97;1.80;;;;;;;;;;5008027;28;20205;-53
2023/09/22 04:37:41;;;;;;;5.93;1.70;;;;;;;;;;5006284;28;20735;-53
2023/09/22 04:40:23;;;;;;;1.90;1.80;;;;;;;;;;5007125;28;20187;-53
2023/09/22 04:42:50;;;;;;;1.70;1.60;;;;;;;;;;4990691;28;20178;-52
2023/09/22 04:45:18;;;;;;;2.40;2.00;;;;;;;;;;5006132;28;20187;-52
2023/09/22 04:47:44;;;;;;;1.90;1.70;;;;;;;;;;5006095;28;20610;-51
2023/09/22 04:50:15;;;;;;;2.73;1.73;;;;;;;;;;5003876;28;20241;-51
2023/09/22 04:52:45;;;;;;;3.40;2.27;;;;;;;;;;5004750;28;20713;-52
2023/09/22 04:55:11;;;;;;;2.80;1.80;;;;;;;;;;5004426;28;20253;-52
2023/09/22 04:57:38;;;;;;;2.43;1.80;;;;;;;;;;5003693;28;20610;-52
2023/09/22 05:00:07;;;;;;;1.97;1.87;;;;;;;;;;5006826;28;20190;-52
2023/09/22 05:02:34;;;;;;;1.97;1.53;;;;;;;;;;5007409;28;20193;-53
2023/09/22 05:05:06;;;;;;;1.70;1.60;;;;;;;;;;5005845;28;20183;-52
2023/09/22 05:07:33;;;;;;;2.20;2.10;;;;;;;;;;5009070;28;20410;-53
2023/09/22 05:09:59;;;;;;;2.07;1.93;;;;;;;;;;5007569;28;20647;-52
2023/09/22 05:12:26;;;;;;;2.10;2.00;;;;;;;;;;5005185;28;20193;-51
2023/09/22 05:14:53;;;;;;;2.10;1.97;;;;;;;;;;4986385;28;20186;-51
2023/09/22 05:17:19;;;;;;;1.93;1.77;;;;;;;;;;5002263;28;20240;-51
2023/09/22 05:19:45;;;;;;;3.97;2.50;;;;;;;;;;5003849;28;20253;-52
2023/09/22 05:22:13;;;;;;;4.80;2.13;;;;;;;;;;5007628;28;20203;-52
2023/09/22 05:24:39;;;;;;;2.60;2.03;;;;;;;;;;5003692;28;20171;-52
2023/09/22 05:27:05;;;;;;;3.63;1.93;;;;;;;;;;5007708;28;20275;-50
2023/09/22 05:29:31;;;;;;;3.50;2.20;;;;;;;;;;5007813;28;20215;-52
2023/09/22 05:31:57;;;;;;;2.70;2.20;;;;;;;;;;5006530;28;20185;-52
2023/09/22 05:34:23;;;;;;;2.83;2.10;;;;;;;;;;5006558;28;20667;-51
2023/09/22 05:36:49;;;;;;;2.70;2.23;;;;;;;;;;5006449;28;20178;-52
2023/09/22 05:39:16;;;;;;;1.93;1.80;;;;;;;;;;5008474;28;20241;-51
2023/09/22 05:41:44;;;;;;;5.50;2.33;;;;;;;;;;5007354;28;20681;-52
2023/09/22 05:44:10;;;;;;;3.07;2.23;;;;;;;;;;5005911;28;20520;-52
2023/09/22 05:46:37;;;;;;;2.67;2.07;;;;;;;;;;5008262;28;20675;-50
2023/09/22 05:49:05;;;;;;;4.47;2.17;;;;;;;;;;5003650;28;20692;-53
2023/09/22 05:51:32;;;;;;;2.23;1.90;;;;;;;;;;5006631;28;20190;-50
2023/09/22 05:53:58;;;;;;;3.57;2.13;;;;;;;;;;5007817;28;20185;-52
2023/09/22 05:56:25;;;;;;;2.40;2.00;;;;;;;;;;4989898;28;20581;-51
2023/09/22 05:58:51;;;;;;;4.03;2.27;;;;;;;;;;5007822;28;20673;-54
2023/09/22 06:01:17;;;;;;;3.70;2.30;;;;;;;;;;5005623;28;20684;-52
2023/09/22 06:03:47;;;;;;;4.30;2.50;;;;;;;;;;5007169;28;20187;-50
2023/09/22 06:06:16;;;;;;;2.37;2.10;;;;;;;;;;5005950;28;20194;-52
2023/09/22 06:08:45;;;;;;;4.63;2.10;;;;;;;;;;5006471;28;20182;-50
2023/09/22 06:11:11;;;;;;;2.40;1.83;;;;;;;;;;5006224;28;20275;-50
2023/09/22 06:13:38;;;;;;;3.53;2.20;;;;;;;;;;5007399;28;20186;-52
2023/09/22 06:16:04;;;;;;;4.43;2.30;;;;;;;;;;5005512;28;20229;-53
2023/09/22 06:18:31;;;;;;;4.20;2.27;;;;;;;;;;5008331;28;20185;-53
2023/09/22 06:20:58;;;;;;;3.13;1.97;;;;;;;;;;5006073;28;20205;-52
2023/09/22 06:23:25;;;;;;;2.97;2.23;;;;;;;;;;5008420;28;20194;-53
2023/09/22 06:25:53;;;;;;;4.90;2.37;;;;;;;;;;5007410;28;20388;-51
2023/09/22 06:28:19;;;;;;;2.20;2.00;;;;;;;;;;5006578;28;20191;-53
2023/09/22 06:40:16;;;;;;;3.43;2.60;;;;;;;;;;5007074;28;20325;-53
2023/09/22 06:42:44;;;;;;;2.47;2.27;;;;;;;;;;5007741;28;20219;-53
2023/09/22 06:45:11;;;;;;;2.50;2.03;;;;;;;;;;5007024;28;20177;-52
2023/09/22 06:47:38;;;;;;;3.30;2.33;;;;;;;;;;5006935;28;20187;-52
2023/09/22 06:50:08;;;;;;;4.30;2.30;;;;;;;;;;5005878;28;20184;-52
2023/09/22 06:52:36;;;;;;;2.93;2.27;;;;;;;;;;4989766;28;20180;-52
2023/09/22 06:55:03;;;;;;;5.93;2.50;;;;;;;;;;5008881;28;20172;-53
2023/09/22 06:57:30;;;;;;;3.27;2.53;;;;;;;;;;5010777;28;20200;-51
2023/09/22 06:59:56;;;;;;;4.50;2.60;;;;;;;;;;5006976;28;20176;-52
2023/09/22 07:02:22;;;;;;;3.07;2.17;;;;;;;;;;5011783;28;20251;-53
2023/09/22 07:04:48;;;;;;;3.30;2.27;;;;;;;;;;5009902;28;20248;-52
2023/09/22 07:07:14;;;;;;;3.70;2.47;;;;;;;;;;5006572;28;20181;-51
2023/09/22 07:09:43;;;;;;;5.77;2.73;;;;;;;;;;4999973;28;20190;-51
2023/09/22 07:12:09;;;;;;;4.33;2.80;;;;;;;;;;5009377;28;20288;-51
2023/09/22 07:14:36;;;;;;;2.93;2.57;;;;;;;;;;5006049;28;20924;-50
2023/09/22 07:17:03;;;;;;;3.20;2.27;;;;;;;;;;5008187;28;20191;-52
2023/09/22 07:19:31;;;;;;;2.30;2.10;;;;;;;;;;4988679;28;20188;-52
2023/09/22 07:21:58;;;;;;;2.30;2.10;;;;;;;;;;5009096;28;20257;-53
2023/09/22 07:24:24;;;;;;;3.13;2.30;;;;;;;;;;5009739;28;20187;-54
2023/09/22 07:26:50;;;;;;;3.63;2.60;;;;;;;;;;5009822;28;20181;-52
2023/09/22 07:29:19;;;;;;;2.90;2.47;;;;;;;;;;5009020;28;20267;-53
2023/09/22 07:31:45;;;;;;;4.60;1.90;;;;;;;;;;5009989;28;20223;-52
2023/09/22 07:34:11;;;;;;;3.20;2.13;;;;;;;;;;5008758;28;20625;-53
2023/09/22 07:36:38;;;;;;;5.20;1.73;;;;;;;;;;5009027;28;20540;-52
2023/09/22 07:39:05;;;;;;;1.80;1.70;;;;;;;;;;5010181;28;20302;-53
2023/09/22 07:41:31;;;;;;;3.63;2.00;;;;;;;;;;5009943;28;20216;-53
2023/09/22 07:43:57;;;;;;;2.73;1.80;;;;;;;;;;5008535;28;20184;-53
2023/09/22 07:46:23;;;;;;;3.33;1.73;;;;;;;;;;5007717;28;20224;-52
2023/09/22 07:48:51;;;;;;;2.03;1.83;;;;;;;;;;5004848;28;20183;-50
2023/09/22 07:51:18;;;;;;;2.50;1.77;;;;;;;;;;5006988;28;20704;-53
2023/09/22 07:53:46;;;;;;;2.53;1.90;;;;;;;;;;5008967;28;20285;-52
2023/09/22 07:56:16;;;;;;;3.23;1.60;;;;;;;;;;5007490;28;21125;-52
2023/09/22 07:58:44;;;;;;;4.07;1.80;;;;;;;;;;5006044;28;20192;-51
2023/09/22 08:01:16;;;;;;;2.23;1.60;;;;;;;;;;5005395;28;20468;-52
2023/09/22 08:03:43;;;;;;;1.97;1.77;;;;;;;;;;5009423;28;20193;-51
2023/09/22 08:06:11;;;;;;;2.00;1.80;;;;;;;;;;5005349;28;20344;-52
2023/09/22 08:08:37;;;;;;;3.57;1.80;;;;;;;;;;5006721;28;20180;-50
2023/09/22 08:11:07;;;;;;;1.97;1.80;;;;;;;;;;5006966;28;20198;-51
2023/09/22 08:13:36;;;;;;;2.00;1.80;;;;;;;;;;4986788;28;20627;-51
2023/09/22 08:16:07;;;;;;;1.80;1.70;;;;;;;;;;5008838;28;20484;-52
2023/09/22 08:18:38;;;;;;;1.70;1.60;;;;;;;;;;5004907;28;20542;-51
2023/09/22 08:21:08;;;;;;;1.90;1.80;;;;;;;;;;5006041;28;20321;-51
2023/09/22 08:23:35;;;;;;;3.77;1.83;;;;;;;;;;5007944;28;20183;-52
2023/09/22 08:26:08;;;;;;;3.20;1.50;;;;;;;;;;5004642;28;20258;-52
2023/09/22 08:28:37;;;;;;;4.40;2.23;;;;;;;;;;5004624;28;20178;-52
2023/09/22 08:31:05;;;;;;;1.73;1.63;;;;;;;;;;5007879;28;20755;-52
2023/09/22 08:33:32;;;;;;;2.27;1.80;;;;;;;;;;5003969;28;20535;-52
2023/09/22 08:35:58;;;;;;;1.53;1.40;;;;;;;;;;5008211;28;20514;-52
2023/09/22 08:38:29;;;;;;;2.87;1.40;;;;;;;;;;5008612;28;20265;-53
2023/09/22 08:40:55;;;;;;;1.63;1.53;;;;;;;;;;5006416;28;20560;-52
2023/09/22 08:43:23;;;;;;;3.33;1.80;;;;;;;;;;5007760;28;20198;-53
2023/09/22 08:45:49;;;;;;;3.33;1.77;;;;;;;;;;5008624;28;20645;-51
2023/09/22 08:48:16;;;;;;;1.90;1.70;;;;;;;;;;5006631;28;20179;-50
2023/09/22 08:50:43;;;;;;;1.40;1.30;;;;;;;;;;5006615;28;20202;-51
2023/09/22 08:53:11;;;;;;;1.80;1.70;;;;;;;;;;5008261;28;20514;-51
2023/09/22 08:55:38;;;;;;;1.73;1.60;;;;;;;;;;5005894;28;20358;-51
2023/09/22 08:58:05;;;;;;;1.60;1.50;;;;;;;;;;5007177;28;20186;-52
2023/09/22 09:00:33;;;;;;;2.00;1.80;;;;;;;;;;5005078;28;20233;-52
2023/09/22 09:03:06;;;;;;;2.03;1.70;;;;;;;;;;5007588;28;20179;-52
2023/09/22 09:05:32;;;;;;;1.87;1.50;;;;;;;;;;5005829;28;20589;-52
2023/09/22 09:08:11;;;;;;;1.60;1.50;;;;;;;;;;5006732;28;20269;-52
2023/09/22 09:10:38;;;;;;;2.37;1.60;;;;;;;;;;5005724;28;20341;-53
2023/09/22 09:13:06;;;;;;;2.43;1.67;;;;;;;;;;5007594;28;20229;-52
2023/09/22 09:15:54;;;;;;;1.70;1.60;;;;;;;;;;5005121;28;20193;-52
2023/09/22 09:18:23;;;;;;;1.63;1.47;;;;;;;;;;5005231;28;20225;-53
2023/09/22 09:21:05;;;;;;;3.03;1.50;;;;;;;;;;5007060;28;20643;-52
2023/09/22 09:23:32;;;;;;;2.53;1.70;;;;;;;;;;5006823;28;20232;-52
2023/09/22 09:25:58;;;;;;;1.50;1.40;;;;;;;;;;5005313;28;20213;-51
2023/09/22 09:28:26;;;;;;;3.53;1.50;;;;;;;;;;5005675;28;20266;-52
2023/09/22 09:30:58;;;;;;;2.17;1.30;;;;;;;;;;5007409;28;20735;-52
2023/09/22 09:33:26;;;;;;;1.67;1.57;;;;;;;;;;5003146;28;20594;-52
2023/09/22 09:35:54;;;;;;;1.50;1.30;;;;;;;;;;5005620;28;20603;-52
2023/09/22 09:38:21;;;;;;;1.40;1.30;;;;;;;;;;5005973;28;20232;-52
2023/09/22 09:40:51;;;;;;;1.80;1.60;;;;;;;;;;5007238;28;20202;-51
2023/09/22 09:43:18;;;;;;;2.13;2.03;;;;;;;;;;5006033;28;20187;-52
2023/09/22 09:45:46;;;;;;;4.30;1.30;;;;;;;;;;5007598;28;20639;-52
2023/09/22 09:48:15;;;;;;;1.80;1.70;;;;;;;;;;5007591;28;20183;-51
2023/09/22 09:50:44;;;;;;;1.73;1.63;;;;;;;;;;5006930;28;20580;-49
2023/09/22 09:53:22;;;;;;;1.70;1.60;;;;;;;;;;5008094;28;20269;-51
2023/09/22 09:55:49;;;;;;;2.17;1.47;;;;;;;;;;5007330;28;20279;-50
2023/09/22 09:58:16;;;;;;;4.03;2.10;;;;;;;;;;5007063;28;20178;-51
2023/09/22 10:00:43;;;;;;;2.00;1.50;;;;;;;;;;4987139;28;20284;-51
2023/09/22 10:03:12;;;;;;;1.60;1.40;;;;;;;;;;5005951;28;20265;-51
2023/09/22 10:05:38;;;;;;;1.70;1.60;;;;;;;;;;5002015;28;20188;-51
2023/09/22 10:08:06;;;;;;;1.97;1.50;;;;;;;;;;5002628;28;20250;-51
2023/09/22 10:10:35;;;;;;;1.60;1.50;;;;;;;;;;5005306;28;20583;-52
2023/09/22 10:13:01;;;;;;;2.40;1.60;;;;;;;;;;5000124;28;20184;-52
2023/09/22 10:15:46;;;;;;;1.80;1.50;;;;;;;;;;5003668;28;20190;-51
2023/09/22 10:18:17;;;;;;;1.97;1.60;;;;;;;;;;5006838;28;20247;-52
2023/09/22 10:20:47;;;;;;;1.93;1.70;;;;;;;;;;5002921;28;20229;-52
2023/09/22 10:23:18;;;;;;;2.40;1.70;;;;;;;;;;5006864;28;20271;-52
2023/09/22 10:26:03;;;;;;;3.20;1.70;;;;;;;;;;5008399;28;20262;-50
2023/09/22 10:28:29;;;;;;;2.80;1.67;;;;;;;;;;5009532;28;20184;-48
2023/09/22 10:30:59;;;;;;;1.77;1.67;;;;;;;;;;4988648;28;20256;-49
2023/09/22 10:33:25;;;;;;;1.93;1.60;;;;;;;;;;5001407;28;20186;-48
2023/09/22 10:35:52;;;;;;;1.67;1.57;;;;;;;;;;5006015;28;20180;-49
2023/09/22 10:38:20;;;;;;;2.27;1.80;;;;;;;;;;5006790;28;20258;-49
2023/09/22 10:41:02;;;;;;;2.33;1.80;;;;;;;;;;5007584;28;20206;-49
2023/09/22 10:43:33;;;;;;;3.30;1.80;;;;;;;;;;5005430;28;20181;-49
2023/09/22 10:45:59;;;;;;;4.90;1.83;;;;;;;;;;5005692;28;20177;-49
2023/09/22 10:48:34;;;;;;;2.27;1.50;;;;;;;;;;5007503;28;20255;-49
2023/09/22 10:51:06;;;;;;;1.80;1.70;;;;;;;;;;5005286;28;20633;-49
2023/09/22 10:53:34;;;;;;;1.50;1.40;;;;;;;;;;5006919;28;20232;-50
2023/09/22 10:56:03;;;;;;;1.63;1.53;;;;;;;;;;5005198;28;20207;-51
2023/09/22 10:58:29;;;;;;;1.60;1.50;;;;;;;;;;5003806;28;20268;-50
2023/09/22 11:01:00;;;;;;;1.80;1.70;;;;;;;;;;5001333;28;20622;-50
2023/09/22 11:03:27;;;;;;;1.70;1.60;;;;;;;;;;5006320;28;20257;-50
2023/09/22 11:06:06;;;;;;;1.70;1.60;;;;;;;;;;5006194;28;20200;-51
2023/09/22 11:08:34;;;;;;;1.70;1.60;;;;;;;;;;5004715;28;20171;-51
2023/09/22 11:11:01;;;;;;;2.57;1.80;;;;;;;;;;5007022;28;20193;-49
2023/09/22 11:13:28;;;;;;;1.60;1.50;;;;;;;;;;5006791;28;20720;-49
2023/09/22 11:15:56;;;;;;;2.50;1.60;;;;;;;;;;5007115;28;20237;-50
2023/09/22 11:18:22;;;;;;;1.90;1.80;;;;;;;;;;5006470;28;20250;-49
2023/09/22 11:20:50;;;;;;;1.97;1.50;;;;;;;;;;4989147;28;20245;-50
2023/09/22 11:23:16;;;;;;;1.57;1.47;;;;;;;;;;5008435;28;20273;-50
2023/09/22 11:25:42;;;;;;;1.70;1.60;;;;;;;;;;5005694;28;20266;-46
2023/09/22 11:28:09;;;;;;;3.23;1.80;;;;;;;;;;5007729;28;20270;-49
2023/09/22 11:30:36;;;;;;;2.20;1.67;;;;;;;;;;5007591;28;20736;-48
2023/09/22 11:33:02;;;;;;;3.10;1.60;;;;;;;;;;4990606;28;20270;-49
2023/09/22 11:35:29;;;;;;;2.30;1.77;;;;;;;;;;4987985;28;20639;-51
2023/09/22 11:37:55;;;;;;;1.67;1.57;;;;;;;;;;4977902;28;20186;-51
2023/09/22 11:40:25;;;;;;;6.33;2.07;;;;;;;;;;5011231;28;20193;-51
2023/09/22 11:42:51;;;;;;;3.20;1.50;;;;;;;;;;5009089;28;20182;-52
2023/09/22 11:45:21;;;;;;;3.17;1.63;;;;;;;;;;5007664;28;20240;-50
2023/09/22 11:47:49;;;;;;;1.80;1.70;;;;;;;;;;5008907;28;20585;-51
2023/09/22 11:50:27;;;;;;;1.57;1.23;;;;;;;;;;5007769;28;20178;-51
2023/09/22 11:53:08;;;;;;;2.93;1.80;;;;;;;;;;5010843;28;20627;-50
2023/09/22 11:55:34;;;;;;;2.20;1.93;;;;;;;;;;5007334;28;20179;-50
2023/09/22 11:58:01;;;;;;;2.60;1.87;;;;;;;;;;5010808;28;20662;-51
2023/09/22 12:00:28;;;;;;;1.70;1.60;;;;;;;;;;5006077;28;20187;-52
2023/09/22 12:02:55;;;;;;;2.03;1.70;;;;;;;;;;5009246;28;20179;-52
2023/09/22 12:05:22;;;;;;;1.87;1.77;;;;;;;;;;5008814;28;20185;-52
2023/09/22 12:07:48;;;;;;;2.57;1.90;;;;;;;;;;5007166;28;21315;-52
2023/09/22 12:10:14;;;;;;;1.60;1.50;;;;;;;;;;5009158;28;20194;-51
2023/09/22 12:12:40;;;;;;;2.23;1.77;;;;;;;;;;5008640;28;20171;-52
2023/09/22 12:15:07;;;;;;;1.90;1.70;;;;;;;;;;5008683;28;20221;-51
2023/09/22 12:17:33;;;;;;;1.50;1.40;;;;;;;;;;5010016;28;20654;-51
2023/09/22 12:19:59;;;;;;;2.77;1.60;;;;;;;;;;5006387;28;20589;-50
2023/09/22 12:22:25;;;;;;;2.17;1.97;;;;;;;;;;5009742;28;20198;-51
2023/09/22 12:24:52;;;;;;;2.57;1.80;;;;;;;;;;4992127;28;20177;-51
2023/09/22 12:27:18;;;;;;;1.90;1.60;;;;;;;;;;5008156;28;20288;-51
2023/09/22 12:29:44;;;;;;;1.87;1.70;;;;;;;;;;5008710;28;20245;-51
2023/09/22 12:32:12;;;;;;;2.23;1.60;;;;;;;;;;5010959;28;20207;-52
2023/09/22 12:34:38;;;;;;;3.03;1.93;;;;;;;;;;5009550;28;20266;-51
2023/09/22 12:37:05;;;;;;;2.00;1.90;;;;;;;;;;5010612;28;20182;-52
2023/09/22 12:39:31;;;;;;;3.67;1.67;;;;;;;;;;5010537;28;20175;-49
2023/09/22 12:41:57;;;;;;;1.70;1.60;;;;;;;;;;5008791;28;20252;-50
2023/09/22 12:44:23;;;;;;;4.27;2.27;;;;;;;;;;5006072;28;20639;-51
2023/09/22 12:46:50;;;;;;;2.20;2.00;;;;;;;;;;5010478;28;20232;-50
2023/09/22 12:49:17;;;;;;;2.77;1.60;;;;;;;;;;5007466;28;20178;-51
2023/09/22 12:51:43;;;;;;;2.33;1.43;;;;;;;;;;5009408;28;20618;-50
2023/09/22 12:54:09;;;;;;;2.10;1.90;;;;;;;;;;5004075;28;20613;-51
2023/09/22 12:56:35;;;;;;;2.10;1.47;;;;;;;;;;5009607;28;20549;-50
2023/09/22 12:59:02;;;;;;;3.67;1.63;;;;;;;;;;5006274;28;20297;-51
2023/09/22 13:01:28;;;;;;;2.73;1.83;;;;;;;;;;5005625;28;20199;-51
2023/09/22 13:03:54;;;;;;;1.67;1.57;;;;;;;;;;5006099;28;20210;-53
2023/09/22 13:06:20;;;;;;;2.50;1.60;;;;;;;;;;5006720;28;20644;-52
2023/09/22 13:08:47;;;;;;;1.80;1.70;;;;;;;;;;5006066;28;20258;-53
2023/09/22 13:11:16;;;;;;;1.80;1.70;;;;;;;;;;5004326;28;20208;-54
2023/09/22 13:13:43;;;;;;;1.60;1.43;;;;;;;;;;5006530;28;20208;-53
2023/09/22 13:16:10;;;;;;;2.97;1.83;;;;;;;;;;5005183;28;20190;-53
2023/09/22 13:18:36;;;;;;;2.00;1.90;;;;;;;;;;5008421;28;20200;-53
2023/09/22 13:21:02;;;;;;;2.13;1.50;;;;;;;;;;5007887;28;20682;-53
2023/09/22 13:23:29;;;;;;;2.60;1.67;;;;;;;;;;5006202;28;20178;-53
2023/09/22 13:25:55;;;;;;;3.13;1.80;;;;;;;;;;5005274;28;20194;-53
2023/09/22 13:28:21;;;;;;;1.80;1.70;;;;;;;;;;4989409;28;20260;-53
2023/09/22 13:30:54;;;;;;;2.77;1.97;;;;;;;;;;5003835;28;20756;-52
2023/09/22 13:33:21;;;;;;;4.87;1.97;;;;;;;;;;5009164;28;20525;-53
2023/09/22 13:35:51;;;;;;;1.80;1.70;;;;;;;;;;5008235;28;20182;-53
2023/09/22 13:38:17;;;;;;;1.80;1.70;;;;;;;;;;4988288;28;20189;-53
2023/09/22 13:40:46;;;;;;;1.90;1.70;;;;;;;;;;4989569;28;20232;-52
2023/09/22 13:43:13;;;;;;;3.50;1.80;;;;;;;;;;4972622;28;20172;-53
2023/09/22 13:45:40;;;;;;;1.70;1.60;;;;;;;;;;4991312;28;20166;-53
2023/09/22 13:48:10;;;;;;;4.57;1.80;;;;;;;;;;5009233;28;20164;-53
2023/09/22 13:50:38;;;;;;;3.00;1.67;;;;;;;;;;5007573;28;20217;-53
2023/09/22 13:53:06;;;;;;;1.60;1.50;;;;;;;;;;5008871;28;20181;-52
2023/09/22 13:55:33;;;;;;;2.93;2.73;;;;;;;;;;5008545;28;20195;-53
2023/09/22 13:58:00;;;;;;;2.17;1.90;;;;;;;;;;5001011;28;20185;-52
2023/09/22 14:00:26;;;;;;;3.90;1.67;;;;;;;;;;4999724;28;20626;-54
2023/09/22 14:02:53;;;;;;;4.33;1.93;;;;;;;;;;5005794;28;20648;-52
2023/09/22 14:05:22;;;;;;;1.80;1.70;;;;;;;;;;5004549;28;20198;-52
2023/09/22 14:07:51;;;;;;;2.80;1.80;;;;;;;;;;5007877;28;20223;-48
2023/09/22 14:10:19;;;;;;;1.97;1.80;;;;;;;;;;5007876;28;20201;-48
2023/09/22 14:12:46;;;;;;;3.27;1.77;;;;;;;;;;5007519;28;20717;-50
2023/09/22 14:15:12;;;;;;;1.70;1.60;;;;;;;;;;5001349;28;20194;-48
2023/09/22 14:17:39;;;;;;;2.03;1.83;;;;;;;;;;5004875;28;20595;-49
2023/09/22 14:20:05;;;;;;;2.90;1.83;;;;;;;;;;5003712;28;20209;-49
2023/09/22 14:22:32;;;;;;;4.00;1.70;;;;;;;;;;5006714;28;20380;-49
2023/09/22 14:24:58;;;;;;;1.70;1.60;;;;;;;;;;5003205;28;20186;-48
2023/09/22 14:27:24;;;;;;;3.47;2.17;;;;;;;;;;5007240;28;20194;-51
2023/09/22 14:29:50;;;;;;;2.97;1.60;;;;;;;;;;5006470;28;20222;-49
2023/09/22 14:32:17;;;;;;;1.70;1.50;;;;;;;;;;4984291;28;20183;-48
2023/09/22 14:34:44;;;;;;;2.43;1.87;;;;;;;;;;5006177;28;20198;-50
2023/09/22 14:37:10;;;;;;;2.40;1.87;;;;;;;;;;4989708;28;20676;-49
2023/09/22 14:39:36;;;;;;;2.07;1.87;;;;;;;;;;5007745;28;20618;-47
2023/09/22 14:42:03;;;;;;;1.73;1.63;;;;;;;;;;5003189;28;20275;-49
2023/09/22 14:44:29;;;;;;;2.47;1.90;;;;;;;;;;5005654;28;20374;-48
2023/09/22 14:46:56;;;;;;;2.73;2.00;;;;;;;;;;5001828;28;20186;-50
2023/09/22 14:49:22;;;;;;;2.27;1.70;;;;;;;;;;4988524;28;20525;-47
2023/09/22 14:51:50;;;;;;;3.70;1.90;;;;;;;;;;5003465;28;20278;-50
2023/09/22 14:54:16;;;;;;;3.10;2.00;;;;;;;;;;5001215;28;20342;-48
2023/09/22 14:56:42;;;;;;;3.23;2.00;;;;;;;;;;4983303;28;20693;-48